CES220 LSZH-ZUCK
Flight info
| Callsign | CES220 |
|---|---|
| Flight time | N/A |
| Altitude | 33000 |
| Route | DEGES5L DEGES Z2 TUNUM DCT UMVEG DCT DIMLO DCT INVED DCT NERDI DCT UVALU/N0483F350 DCT GOSLO DCT UDROS UM859 KARDE UN644 ROLIN N644 LAGAS M747 LUSAL DCT RASAM L88 METKA B476 DARVA/K0902F350 T898 SUDAR/K0895F370 T898 OGOLI N193 SR DCT TISIB L141 KAMUD/K0891S1130 W186 SADAN Y1 OMBON W245 OVRAL B330 VIMAM W235 UBRAB B213 VINEX VINEX2H |
| Aircraft | B77W/H-SDE1E2E3FGHIJ2J3J4J5M1RWXY/LB1D1 |
Departure
| Time | 2026-05-05 17:33 |
|---|---|
| Airport | Zürich Airport (LSZH) |
Arrival
| Time | N/A |
|---|---|
| Airport | Chongqing Jiangbei International Airport (ZUCK) |
| Time | Latitude | Longitude | Altitude | Speed | Heading |
|---|---|---|---|---|---|
| 2026-05-05 17:18 | 47.45579 | 8.55585 | 1402 ft | 0 kts | 6° |
| 2026-05-05 17:26 | 47.45583 | 8.55586 | 1402 ft | 1 kts | 6° |
| 2026-05-05 17:27 | 47.45593 | 8.55587 | 1408 ft | 0 kts | 6° |
| 2026-05-05 17:28 | 47.45594 | 8.55587 | 1408 ft | 1 kts | 6° |
| 2026-05-05 17:28 | 47.45610 | 8.55590 | 1402 ft | 4 kts | 6° |
| 2026-05-05 17:28 | 47.45642 | 8.55615 | 1411 ft | 6 kts | 53° |
| 2026-05-05 17:29 | 47.45650 | 8.55688 | 1405 ft | 9 kts | 91° |
| 2026-05-05 17:29 | 47.45643 | 8.55794 | 1407 ft | 12 kts | 96° |
| 2026-05-05 17:29 | 47.45634 | 8.55925 | 1406 ft | 14 kts | 96° |
| 2026-05-05 17:29 | 47.45622 | 8.56080 | 1401 ft | 15 kts | 96° |
| 2026-05-05 17:30 | 47.45614 | 8.56196 | 1407 ft | 9 kts | 96° |
| 2026-05-05 17:30 | 47.45647 | 8.56267 | 1410 ft | 9 kts | 17° |
| 2026-05-05 17:30 | 47.45713 | 8.56279 | 1409 ft | 10 kts | 6° |
| 2026-05-05 17:30 | 47.45779 | 8.56289 | 1411 ft | 10 kts | 6° |
| 2026-05-05 17:31 | 47.45846 | 8.56299 | 1412 ft | 10 kts | 6° |
| 2026-05-05 17:31 | 47.45912 | 8.56310 | 1413 ft | 10 kts | 6° |
| 2026-05-05 17:31 | 47.45981 | 8.56320 | 1413 ft | 10 kts | 6° |
| 2026-05-05 17:31 | 47.46055 | 8.56334 | 1412 ft | 11 kts | 15° |
| 2026-05-05 17:32 | 47.46121 | 8.56407 | 1409 ft | 13 kts | 41° |
| 2026-05-05 17:32 | 47.46161 | 8.56402 | 1406 ft | 0 kts | 316° |
| 2026-05-05 17:32 | 47.46162 | 8.56401 | 1405 ft | 0 kts | 316° |
| 2026-05-05 17:32 | 47.46175 | 8.56383 | 1408 ft | 14 kts | 316° |
| 2026-05-05 17:33 | 47.46439 | 8.56024 | 1406 ft | 90 kts | 317° |
| 2026-05-05 17:33 | 47.47070 | 8.55160 | 1406 ft | 158 kts | 318° |
| 2026-05-05 17:33 | 47.48000 | 8.53885 | 1504 ft | 196 kts | 316° |
| 2026-05-05 17:33 | 47.49017 | 8.52498 | 2057 ft | 202 kts | 315° |
| 2026-05-05 17:34 | 47.50134 | 8.51227 | 2788 ft | 203 kts | 326° |
| 2026-05-05 17:34 | 47.51386 | 8.50182 | 3329 ft | 210 kts | 328° |
| 2026-05-05 17:34 | 47.52581 | 8.48958 | 3700 ft | 212 kts | 308° |
| 2026-05-05 17:34 | 47.53366 | 8.47133 | 4238 ft | 210 kts | 285° |
| 2026-05-05 17:35 | 47.53559 | 8.45015 | 4776 ft | 207 kts | 261° |
| 2026-05-05 17:35 | 47.53169 | 8.42940 | 5329 ft | 211 kts | 246° |
| 2026-05-05 17:35 | 47.52570 | 8.40973 | 5909 ft | 211 kts | 244° |
| 2026-05-05 17:35 | 47.51920 | 8.39014 | 6492 ft | 210 kts | 237° |
| 2026-05-05 17:36 | 47.50852 | 8.37590 | 7019 ft | 212 kts | 206° |
| 2026-05-05 17:36 | 47.49388 | 8.37207 | 7512 ft | 220 kts | 179° |
| 2026-05-05 17:36 | 47.47979 | 8.37847 | 7872 ft | 234 kts | 153° |
| 2026-05-05 17:36 | 47.46804 | 8.39589 | 8379 ft | 245 kts | 125° |
| 2026-05-05 17:37 | 47.45988 | 8.41829 | 8844 ft | 249 kts | 117° |
| 2026-05-05 17:37 | 47.45671 | 8.43489 | 9050 ft | 261 kts | 97° |
| 2026-05-05 17:37 | 47.45689 | 8.47220 | 9255 ft | 286 kts | 92° |
| 2026-05-05 17:37 | 47.45705 | 8.50251 | 9591 ft | 300 kts | 92° |
| 2026-05-05 17:38 | 47.45703 | 8.53383 | 10093 ft | 309 kts | 92° |
| 2026-05-05 17:38 | 47.45746 | 8.56639 | 10322 ft | 331 kts | 89° |
| 2026-05-05 17:38 | 47.45884 | 8.60172 | 10524 ft | 354 kts | 89° |
| 2026-05-05 17:38 | 47.46036 | 8.63929 | 10702 ft | 378 kts | 89° |
| 2026-05-05 17:39 | 47.46188 | 8.67887 | 11169 ft | 391 kts | 89° |
| 2026-05-05 17:39 | 47.46344 | 8.71964 | 11829 ft | 400 kts | 89° |
| 2026-05-05 17:39 | 47.46496 | 8.76048 | 12633 ft | 405 kts | 89° |
| 2026-05-05 17:39 | 47.46650 | 8.80258 | 13548 ft | 406 kts | 88° |
| 2026-05-05 17:40 | 47.46615 | 8.84381 | 14273 ft | 405 kts | 99° |
| 2026-05-05 17:40 | 47.46057 | 8.88484 | 14903 ft | 410 kts | 105° |
| 2026-05-05 17:40 | 47.45360 | 8.92604 | 15672 ft | 413 kts | 107° |
| 2026-05-05 17:40 | 47.44669 | 8.96716 | 16451 ft | 416 kts | 105° |
| 2026-05-05 17:41 | 47.44034 | 9.00865 | 17217 ft | 420 kts | 104° |
| 2026-05-05 17:41 | 47.43423 | 9.05136 | 17982 ft | 424 kts | 104° |
| 2026-05-05 17:41 | 47.42825 | 9.09428 | 18661 ft | 428 kts | 104° |
| 2026-05-05 17:41 | 47.42218 | 9.13750 | 19305 ft | 431 kts | 104° |
| 2026-05-05 17:42 | 47.41614 | 9.18078 | 19937 ft | 431 kts | 102° |
| 2026-05-05 17:42 | 47.41463 | 9.22579 | 20331 ft | 446 kts | 83° |
| 2026-05-05 17:42 | 47.42138 | 9.27036 | 20786 ft | 451 kts | 77° |
| 2026-05-05 17:42 | 47.42923 | 9.31508 | 21395 ft | 454 kts | 77° |
| 2026-05-05 17:43 | 47.43678 | 9.36053 | 22163 ft | 454 kts | 78° |
| 2026-05-05 17:43 | 47.44108 | 9.38771 | 22563 ft | 455 kts | 79° |